sensor_id;sensor_type;location;lat;lon;timestamp;temperature;humidity
37782;DHT22;23621;50.878;4.584;2023-05-20T00:01:22;19.60;57.90
37782;DHT22;23621;50.878;4.584;2023-05-20T00:04:09;19.60;58.00
37782;DHT22;23621;50.878;4.584;2023-05-20T00:06:57;19.50;58.10
37782;DHT22;23621;50.878;4.584;2023-05-20T00:09:44;19.50;58.20
37782;DHT22;23621;50.878;4.584;2023-05-20T00:12:31;19.40;58.30
37782;DHT22;23621;50.878;4.584;2023-05-20T00:15:19;19.30;58.30
37782;DHT22;23621;50.878;4.584;2023-05-20T00:18:06;19.30;58.50
37782;DHT22;23621;50.878;4.584;2023-05-20T00:20:54;19.20;58.60
37782;DHT22;23621;50.878;4.584;2023-05-20T00:23:41;19.20;58.70
37782;DHT22;23621;50.878;4.584;2023-05-20T00:26:28;19.10;58.90
37782;DHT22;23621;50.878;4.584;2023-05-20T00:29:16;19.10;58.90
37782;DHT22;23621;50.878;4.584;2023-05-20T00:32:03;19.00;58.90
37782;DHT22;23621;50.878;4.584;2023-05-20T00:34:58;18.90;59.00
37782;DHT22;23621;50.878;4.584;2023-05-20T00:37:45;18.90;59.20
37782;DHT22;23621;50.878;4.584;2023-05-20T00:40:32;18.80;59.30
37782;DHT22;23621;50.878;4.584;2023-05-20T00:43:20;18.80;59.40
37782;DHT22;23621;50.878;4.584;2023-05-20T00:46:09;18.90;59.60
37782;DHT22;23621;50.878;4.584;2023-05-20T00:48:57;18.90;59.80
37782;DHT22;23621;50.878;4.584;2023-05-20T00:51:44;18.90;59.60
37782;DHT22;23621;50.878;4.584;2023-05-20T00:54:32;19.00;59.80
37782;DHT22;23621;50.878;4.584;2023-05-20T00:57:19;19.00;59.70
37782;DHT22;23621;50.878;4.584;2023-05-20T01:00:08;19.00;59.90
37782;DHT22;23621;50.878;4.584;2023-05-20T01:02:56;19.00;59.90
37782;DHT22;23621;50.878;4.584;2023-05-20T01:05:44;19.00;59.90
37782;DHT22;23621;50.878;4.584;2023-05-20T01:08:31;19.00;59.90
37782;DHT22;23621;50.878;4.584;2023-05-20T01:11:33;18.90;59.80
37782;DHT22;23621;50.878;4.584;2023-05-20T01:14:23;19.00;60.00
37782;DHT22;23621;50.878;4.584;2023-05-20T01:17:14;18.90;59.80
37782;DHT22;23621;50.878;4.584;2023-05-20T01:20:06;19.00;59.90
37782;DHT22;23621;50.878;4.584;2023-05-20T01:22:56;18.90;59.70
37782;DHT22;23621;50.878;4.584;2023-05-20T01:25:43;19.00;59.70
37782;DHT22;23621;50.878;4.584;2023-05-20T01:28:32;18.90;59.70
37782;DHT22;23621;50.878;4.584;2023-05-20T01:31:23;18.90;59.80
37782;DHT22;23621;50.878;4.584;2023-05-20T01:34:11;18.90;59.80
37782;DHT22;23621;50.878;4.584;2023-05-20T01:36:59;18.90;59.80
37782;DHT22;23621;50.878;4.584;2023-05-20T01:39:48;18.90;59.60
37782;DHT22;23621;50.878;4.584;2023-05-20T01:42:37;19.00;59.50
37782;DHT22;23621;50.878;4.584;2023-05-20T01:45:25;19.00;59.20
37782;DHT22;23621;50.878;4.584;2023-05-20T01:48:12;19.00;58.90
37782;DHT22;23621;50.878;4.584;2023-05-20T01:51:00;19.10;59.00
37782;DHT22;23621;50.878;4.584;2023-05-20T01:53:47;19.10;58.80
37782;DHT22;23621;50.878;4.584;2023-05-20T01:56:34;19.10;58.70
37782;DHT22;23621;50.878;4.584;2023-05-20T01:59:22;19.10;58.80
37782;DHT22;23621;50.878;4.584;2023-05-20T02:02:09;19.10;58.90
37782;DHT22;23621;50.878;4.584;2023-05-20T02:04:57;19.10;58.90
37782;DHT22;23621;50.878;4.584;2023-05-20T02:07:44;19.10;58.80
37782;DHT22;23621;50.878;4.584;2023-05-20T02:10:31;19.10;58.70
37782;DHT22;23621;50.878;4.584;2023-05-20T02:13:19;19.10;58.60
37782;DHT22;23621;50.878;4.584;2023-05-20T02:16:06;19.10;58.50
37782;DHT22;23621;50.878;4.584;2023-05-20T02:18:54;19.10;58.40
37782;DHT22;23621;50.878;4.584;2023-05-20T02:21:41;19.10;58.40
37782;DHT22;23621;50.878;4.584;2023-05-20T02:24:30;19.10;58.40
37782;DHT22;23621;50.878;4.584;2023-05-20T02:27:17;19.10;58.30
37782;DHT22;23621;50.878;4.584;2023-05-20T02:30:05;19.10;58.30
37782;DHT22;23621;50.878;4.584;2023-05-20T02:32:52;19.10;58.30
37782;DHT22;23621;50.878;4.584;2023-05-20T02:35:40;19.10;58.30
37782;DHT22;23621;50.878;4.584;2023-05-20T02:38:27;19.10;58.20
37782;DHT22;23621;50.878;4.584;2023-05-20T02:41:15;19.10;58.10
37782;DHT22;23621;50.878;4.584;2023-05-20T02:44:02;19.10;57.90
37782;DHT22;23621;50.878;4.584;2023-05-20T02:46:50;19.10;57.80
37782;DHT22;23621;50.878;4.584;2023-05-20T02:49:37;19.10;57.90
37782;DHT22;23621;50.878;4.584;2023-05-20T02:52:25;19.10;58.40
37782;DHT22;23621;50.878;4.584;2023-05-20T02:55:12;19.00;57.70
37782;DHT22;23621;50.878;4.584;2023-05-20T02:57:59;19.00;57.90
37782;DHT22;23621;50.878;4.584;2023-05-20T03:00:47;19.00;58.10
37782;DHT22;23621;50.878;4.584;2023-05-20T03:03:34;19.00;58.20
37782;DHT22;23621;50.878;4.584;2023-05-20T03:06:24;19.00;58.20
37782;DHT22;23621;50.878;4.584;2023-05-20T03:09:12;18.90;58.30
37782;DHT22;23621;50.878;4.584;2023-05-20T03:12:00;18.90;58.20
37782;DHT22;23621;50.878;4.584;2023-05-20T03:14:47;18.90;58.20
37782;DHT22;23621;50.878;4.584;2023-05-20T03:17:34;18.90;58.40
37782;DHT22;23621;50.878;4.584;2023-05-20T03:20:22;18.80;58.30
37782;DHT22;23621;50.878;4.584;2023-05-20T03:23:09;18.80;58.50
37782;DHT22;23621;50.878;4.584;2023-05-20T03:25:57;18.80;58.60
37782;DHT22;23621;50.878;4.584;2023-05-20T03:28:44;18.70;58.60
37782;DHT22;23621;50.878;4.584;2023-05-20T03:31:31;18.70;58.80
37782;DHT22;23621;50.878;4.584;2023-05-20T03:34:20;18.60;58.90
37782;DHT22;23621;50.878;4.584;2023-05-20T03:37:07;18.60;59.10
37782;DHT22;23621;50.878;4.584;2023-05-20T03:39:54;18.60;59.20
37782;DHT22;23621;50.878;4.584;2023-05-20T03:42:42;18.50;59.40
37782;DHT22;23621;50.878;4.584;2023-05-20T03:45:29;18.40;59.50
37782;DHT22;23621;50.878;4.584;2023-05-20T03:48:16;18.40;59.50
37782;DHT22;23621;50.878;4.584;2023-05-20T03:51:03;18.40;59.60
37782;DHT22;23621;50.878;4.584;2023-05-20T03:53:51;18.40;59.70
37782;DHT22;23621;50.878;4.584;2023-05-20T03:56:38;18.40;59.80
37782;DHT22;23621;50.878;4.584;2023-05-20T03:59:26;18.30;60.00
37782;DHT22;23621;50.878;4.584;2023-05-20T04:02:13;18.30;60.20
37782;DHT22;23621;50.878;4.584;2023-05-20T04:05:00;18.20;60.30
37782;DHT22;23621;50.878;4.584;2023-05-20T04:07:48;18.20;60.40
37782;DHT22;23621;50.878;4.584;2023-05-20T04:10:35;18.10;60.40
37782;DHT22;23621;50.878;4.584;2023-05-20T04:13:24;18.10;60.70
37782;DHT22;23621;50.878;4.584;2023-05-20T04:16:11;18.10;60.90
37782;DHT22;23621;50.878;4.584;2023-05-20T04:18:59;18.10;61.00
37782;DHT22;23621;50.878;4.584;2023-05-20T04:21:50;18.00;61.20
37782;DHT22;23621;50.878;4.584;2023-05-20T04:24:37;18.00;61.30
37782;DHT22;23621;50.878;4.584;2023-05-20T04:27:25;18.00;61.50
37782;DHT22;23621;50.878;4.584;2023-05-20T04:30:12;18.00;61.70
37782;DHT22;23621;50.878;4.584;2023-05-20T04:33:00;18.00;61.80
37782;DHT22;23621;50.878;4.584;2023-05-20T04:35:49;18.10;61.90
37782;DHT22;23621;50.878;4.584;2023-05-20T04:38:37;18.20;61.70
37782;DHT22;23621;50.878;4.584;2023-05-20T04:41:24;18.20;61.60
37782;DHT22;23621;50.878;4.584;2023-05-20T04:44:11;18.30;61.60
37782;DHT22;23621;50.878;4.584;2023-05-20T04:46:59;18.40;61.40
37782;DHT22;23621;50.878;4.584;2023-05-20T04:49:46;18.50;61.40
37782;DHT22;23621;50.878;4.584;2023-05-20T04:52:34;18.50;61.30
37782;DHT22;23621;50.878;4.584;2023-05-20T04:55:21;18.60;61.40
37782;DHT22;23621;50.878;4.584;2023-05-20T04:58:10;18.60;61.20
37782;DHT22;23621;50.878;4.584;2023-05-20T05:01:01;18.70;61.20
37782;DHT22;23621;50.878;4.584;2023-05-20T05:03:49;18.70;61.10
37782;DHT22;23621;50.878;4.584;2023-05-20T05:06:36;18.70;61.20
37782;DHT22;23621;50.878;4.584;2023-05-20T05:09:23;18.80;61.10
37782;DHT22;23621;50.878;4.584;2023-05-20T05:12:11;18.80;61.10
37782;DHT22;23621;50.878;4.584;2023-05-20T05:14:58;18.80;61.10
37782;DHT22;23621;50.878;4.584;2023-05-20T05:17:45;18.80;61.20
37782;DHT22;23621;50.878;4.584;2023-05-20T05:20:33;18.80;61.20
37782;DHT22;23621;50.878;4.584;2023-05-20T05:23:20;18.90;61.30
37782;DHT22;23621;50.878;4.584;2023-05-20T05:26:07;18.90;61.30
37782;DHT22;23621;50.878;4.584;2023-05-20T05:28:55;18.90;61.40
37782;DHT22;23621;50.878;4.584;2023-05-20T05:31:42;18.90;61.30
37782;DHT22;23621;50.878;4.584;2023-05-20T05:34:29;18.90;61.40
37782;DHT22;23621;50.878;4.584;2023-05-20T05:37:17;18.90;61.30
37782;DHT22;23621;50.878;4.584;2023-05-20T05:40:05;19.00;61.40
37782;DHT22;23621;50.878;4.584;2023-05-20T05:42:53;19.00;61.70
37782;DHT22;23621;50.878;4.584;2023-05-20T05:45:40;19.00;61.60
37782;DHT22;23621;50.878;4.584;2023-05-20T05:48:29;19.00;61.70
37782;DHT22;23621;50.878;4.584;2023-05-20T05:51:16;19.10;61.80
37782;DHT22;23621;50.878;4.584;2023-05-20T05:54:04;19.10;61.80
37782;DHT22;23621;50.878;4.584;2023-05-20T05:56:51;19.10;61.70
37782;DHT22;23621;50.878;4.584;2023-05-20T05:59:39;19.10;61.80
37782;DHT22;23621;50.878;4.584;2023-05-20T06:02:26;19.20;61.80
37782;DHT22;23621;50.878;4.584;2023-05-20T06:05:14;19.20;61.80
37782;DHT22;23621;50.878;4.584;2023-05-20T06:08:01;19.30;61.90
37782;DHT22;23621;50.878;4.584;2023-05-20T06:10:49;19.30;61.90
37782;DHT22;23621;50.878;4.584;2023-05-20T06:13:36;19.30;62.00
37782;DHT22;23621;50.878;4.584;2023-05-20T06:16:24;19.40;62.20
37782;DHT22;23621;50.878;4.584;2023-05-20T06:19:12;19.40;62.20
37782;DHT22;23621;50.878;4.584;2023-05-20T06:21:59;19.40;62.00
37782;DHT22;23621;50.878;4.584;2023-05-20T06:24:46;19.40;61.90
37782;DHT22;23621;50.878;4.584;2023-05-20T06:27:33;19.50;62.00
37782;DHT22;23621;50.878;4.584;2023-05-20T06:30:21;19.50;61.90
37782;DHT22;23621;50.878;4.584;2023-05-20T06:33:08;19.50;61.90
37782;DHT22;23621;50.878;4.584;2023-05-20T06:35:56;19.60;62.00
37782;DHT22;23621;50.878;4.584;2023-05-20T06:38:44;19.60;62.10
37782;DHT22;23621;50.878;4.584;2023-05-20T06:41:31;19.70;62.20
37782;DHT22;23621;50.878;4.584;2023-05-20T06:44:18;19.80;62.10
37782;DHT22;23621;50.878;4.584;2023-05-20T06:47:06;19.90;62.10
37782;DHT22;23621;50.878;4.584;2023-05-20T06:49:53;19.90;62.20
37782;DHT22;23621;50.878;4.584;2023-05-20T06:52:40;19.90;62.00
37782;DHT22;23621;50.878;4.584;2023-05-20T06:55:27;20.00;61.90
37782;DHT22;23621;50.878;4.584;2023-05-20T06:58:15;20.00;61.70
37782;DHT22;23621;50.878;4.584;2023-05-20T07:01:02;20.10;61.80
37782;DHT22;23621;50.878;4.584;2023-05-20T07:03:49;20.10;61.50
37782;DHT22;23621;50.878;4.584;2023-05-20T07:06:37;20.20;61.50
37782;DHT22;23621;50.878;4.584;2023-05-20T07:09:24;20.30;61.70
37782;DHT22;23621;50.878;4.584;2023-05-20T07:12:12;20.30;61.50
37782;DHT22;23621;50.878;4.584;2023-05-20T07:14:59;20.30;61.40
37782;DHT22;23621;50.878;4.584;2023-05-20T07:17:47;20.40;61.40
37782;DHT22;23621;50.878;4.584;2023-05-20T07:20:34;20.50;61.30
37782;DHT22;23621;50.878;4.584;2023-05-20T07:23:22;20.50;61.30
37782;DHT22;23621;50.878;4.584;2023-05-20T07:26:10;20.60;61.40
37782;DHT22;23621;50.878;4.584;2023-05-20T07:28:57;20.70;61.60
37782;DHT22;23621;50.878;4.584;2023-05-20T07:31:44;20.70;61.40
37782;DHT22;23621;50.878;4.584;2023-05-20T07:34:32;20.80;61.60
37782;DHT22;23621;50.878;4.584;2023-05-20T07:37:19;20.90;61.50
37782;DHT22;23621;50.878;4.584;2023-05-20T07:40:07;20.90;61.00
37782;DHT22;23621;50.878;4.584;2023-05-20T07:42:54;21.00;61.00
37782;DHT22;23621;50.878;4.584;2023-05-20T07:45:42;21.10;61.80
37782;DHT22;23621;50.878;4.584;2023-05-20T07:48:29;21.10;60.70
37782;DHT22;23621;50.878;4.584;2023-05-20T07:51:16;21.20;60.60
37782;DHT22;23621;50.878;4.584;2023-05-20T07:54:05;21.30;60.40
37782;DHT22;23621;50.878;4.584;2023-05-20T07:56:52;21.30;60.00
37782;DHT22;23621;50.878;4.584;2023-05-20T07:59:39;21.40;60.00
37782;DHT22;23621;50.878;4.584;2023-05-20T08:02:27;21.50;59.80
37782;DHT22;23621;50.878;4.584;2023-05-20T08:05:14;21.50;59.60
37782;DHT22;23621;50.878;4.584;2023-05-20T08:08:01;21.60;59.40
37782;DHT22;23621;50.878;4.584;2023-05-20T08:10:50;21.60;59.20
37782;DHT22;23621;50.878;4.584;2023-05-20T08:13:38;21.60;59.10
37782;DHT22;23621;50.878;4.584;2023-05-20T08:16:26;21.70;58.90
37782;DHT22;23621;50.878;4.584;2023-05-20T08:19:13;21.80;58.80
37782;DHT22;23621;50.878;4.584;2023-05-20T08:22:01;21.80;58.70
37782;DHT22;23621;50.878;4.584;2023-05-20T08:24:49;21.90;58.60
37782;DHT22;23621;50.878;4.584;2023-05-20T08:27:36;22.00;58.60
37782;DHT22;23621;50.878;4.584;2023-05-20T08:30:23;22.00;58.50
37782;DHT22;23621;50.878;4.584;2023-05-20T08:33:11;22.10;58.10
37782;DHT22;23621;50.878;4.584;2023-05-20T08:35:59;22.10;57.60
37782;DHT22;23621;50.878;4.584;2023-05-20T08:38:46;22.20;57.40
37782;DHT22;23621;50.878;4.584;2023-05-20T08:41:35;22.20;57.60
37782;DHT22;23621;50.878;4.584;2023-05-20T08:44:23;22.20;57.60
37782;DHT22;23621;50.878;4.584;2023-05-20T08:47:12;22.30;57.20
37782;DHT22;23621;50.878;4.584;2023-05-20T08:49:59;22.40;57.30
37782;DHT22;23621;50.878;4.584;2023-05-20T08:52:47;22.50;57.20
37782;DHT22;23621;50.878;4.584;2023-05-20T08:55:56;22.50;57.30
37782;DHT22;23621;50.878;4.584;2023-05-20T08:58:48;22.60;57.60
37782;DHT22;23621;50.878;4.584;2023-05-20T09:01:43;22.60;57.80
37782;DHT22;23621;50.878;4.584;2023-05-20T09:04:30;22.70;57.40
37782;DHT22;23621;50.878;4.584;2023-05-20T09:07:27;22.80;56.80
37782;DHT22;23621;50.878;4.584;2023-05-20T09:10:15;22.80;56.50
37782;DHT22;23621;50.878;4.584;2023-05-20T09:13:03;22.90;56.80
37782;DHT22;23621;50.878;4.584;2023-05-20T09:15:51;22.90;56.80
37782;DHT22;23621;50.878;4.584;2023-05-20T09:18:38;22.90;56.20
37782;DHT22;23621;50.878;4.584;2023-05-20T09:21:27;23.00;55.90
37782;DHT22;23621;50.878;4.584;2023-05-20T09:24:14;23.10;56.20
37782;DHT22;23621;50.878;4.584;2023-05-20T09:27:05;23.10;56.60
37782;DHT22;23621;50.878;4.584;2023-05-20T09:29:53;23.20;55.50
37782;DHT22;23621;50.878;4.584;2023-05-20T09:32:40;23.20;55.20
37782;DHT22;23621;50.878;4.584;2023-05-20T09:35:27;23.20;54.90
37782;DHT22;23621;50.878;4.584;2023-05-20T09:38:15;23.30;54.80
37782;DHT22;23621;50.878;4.584;2023-05-20T09:41:12;23.40;55.10
37782;DHT22;23621;50.878;4.584;2023-05-20T09:43:59;23.40;54.60
37782;DHT22;23621;50.878;4.584;2023-05-20T09:46:48;23.40;54.40
37782;DHT22;23621;50.878;4.584;2023-05-20T09:49:37;23.40;54.80
37782;DHT22;23621;50.878;4.584;2023-05-20T09:52:25;23.40;54.60
37782;DHT22;23621;50.878;4.584;2023-05-20T09:55:14;23.40;54.30
37782;DHT22;23621;50.878;4.584;2023-05-20T09:58:02;23.40;54.60
37782;DHT22;23621;50.878;4.584;2023-05-20T10:00:49;23.40;54.20
37782;DHT22;23621;50.878;4.584;2023-05-20T10:03:37;23.50;54.20
37782;DHT22;23621;50.878;4.584;2023-05-20T10:13:35;23.80;54.80
37782;DHT22;23621;50.878;4.584;2023-05-20T10:19:32;23.90;54.50
37782;DHT22;23621;50.878;4.584;2023-05-20T10:22:28;24.00;54.70
37782;DHT22;23621;50.878;4.584;2023-05-20T10:25:24;24.10;55.00
37782;DHT22;23621;50.878;4.584;2023-05-20T10:28:12;24.20;54.90
37782;DHT22;23621;50.878;4.584;2023-05-20T10:31:00;24.20;54.50
37782;DHT22;23621;50.878;4.584;2023-05-20T10:33:50;24.30;54.10
37782;DHT22;23621;50.878;4.584;2023-05-20T10:36:38;24.30;54.20
37782;DHT22;23621;50.878;4.584;2023-05-20T10:39:31;24.40;54.00
37782;DHT22;23621;50.878;4.584;2023-05-20T10:42:28;24.40;54.30
37782;DHT22;23621;50.878;4.584;2023-05-20T10:45:28;24.60;54.10
37782;DHT22;23621;50.878;4.584;2023-05-20T10:51:13;24.60;54.90
37782;DHT22;23621;50.878;4.584;2023-05-20T10:54:00;24.60;54.90
37782;DHT22;23621;50.878;4.584;2023-05-20T10:56:52;24.60;55.20
37782;DHT22;23621;50.878;4.584;2023-05-20T10:59:40;24.70;55.00
37782;DHT22;23621;50.878;4.584;2023-05-20T11:02:27;24.70;54.70
37782;DHT22;23621;50.878;4.584;2023-05-20T11:05:16;24.80;54.30
37782;DHT22;23621;50.878;4.584;2023-05-20T11:08:05;24.80;54.20
37782;DHT22;23621;50.878;4.584;2023-05-20T11:11:13;24.90;54.20
37782;DHT22;23621;50.878;4.584;2023-05-20T11:14:01;25.00;53.90
37782;DHT22;23621;50.878;4.584;2023-05-20T11:16:52;25.00;54.20
37782;DHT22;23621;50.878;4.584;2023-05-20T11:19:40;25.00;54.10
37782;DHT22;23621;50.878;4.584;2023-05-20T11:22:27;25.00;54.60
37782;DHT22;23621;50.878;4.584;2023-05-20T11:25:16;25.00;54.70
37782;DHT22;23621;50.878;4.584;2023-05-20T11:28:03;25.10;54.20
37782;DHT22;23621;50.878;4.584;2023-05-20T11:30:51;25.10;54.30
37782;DHT22;23621;50.878;4.584;2023-05-20T11:33:41;25.10;54.40
37782;DHT22;23621;50.878;4.584;2023-05-20T11:36:28;25.10;54.70
37782;DHT22;23621;50.878;4.584;2023-05-20T11:39:16;25.10;54.10
37782;DHT22;23621;50.878;4.584;2023-05-20T11:42:04;25.10;54.10
37782;DHT22;23621;50.878;4.584;2023-05-20T11:44:52;25.10;54.20
37782;DHT22;23621;50.878;4.584;2023-05-20T11:47:39;25.10;54.00
37782;DHT22;23621;50.878;4.584;2023-05-20T11:50:27;25.10;54.20
37782;DHT22;23621;50.878;4.584;2023-05-20T11:56:03;25.20;54.30
37782;DHT22;23621;50.878;4.584;2023-05-20T11:58:51;25.30;54.30
37782;DHT22;23621;50.878;4.584;2023-05-20T12:01:39;25.40;54.40
37782;DHT22;23621;50.878;4.584;2023-05-20T12:04:29;25.50;54.40
37782;DHT22;23621;50.878;4.584;2023-05-20T12:07:17;25.50;54.40
37782;DHT22;23621;50.878;4.584;2023-05-20T12:10:05;25.60;54.70
37782;DHT22;23621;50.878;4.584;2023-05-20T12:12:52;25.50;54.80
37782;DHT22;23621;50.878;4.584;2023-05-20T12:15:40;25.60;55.10
37782;DHT22;23621;50.878;4.584;2023-05-20T12:18:27;25.70;54.90
37782;DHT22;23621;50.878;4.584;2023-05-20T12:21:14;25.80;54.60
37782;DHT22;23621;50.878;4.584;2023-05-20T12:24:02;25.90;54.20
37782;DHT22;23621;50.878;4.584;2023-05-20T12:26:51;26.00;54.50
37782;DHT22;23621;50.878;4.584;2023-05-20T12:29:38;26.10;54.90
37782;DHT22;23621;50.878;4.584;2023-05-20T12:32:26;26.10;54.60
37782;DHT22;23621;50.878;4.584;2023-05-20T12:35:13;26.10;54.30
37782;DHT22;23621;50.878;4.584;2023-05-20T12:38:00;26.20;54.80
37782;DHT22;23621;50.878;4.584;2023-05-20T12:40:48;26.20;54.30
37782;DHT22;23621;50.878;4.584;2023-05-20T12:43:35;26.20;54.00
37782;DHT22;23621;50.878;4.584;2023-05-20T12:46:26;26.20;54.00
37782;DHT22;23621;50.878;4.584;2023-05-20T12:49:13;26.20;54.30
37782;DHT22;23621;50.878;4.584;2023-05-20T12:52:00;26.30;53.80
37782;DHT22;23621;50.878;4.584;2023-05-20T12:54:55;26.40;54.00
37782;DHT22;23621;50.878;4.584;2023-05-20T12:57:43;26.50;54.00
37782;DHT22;23621;50.878;4.584;2023-05-20T13:00:31;26.50;53.60
37782;DHT22;23621;50.878;4.584;2023-05-20T13:03:19;26.50;53.40
37782;DHT22;23621;50.878;4.584;2023-05-20T13:06:06;26.50;53.40
37782;DHT22;23621;50.878;4.584;2023-05-20T13:08:54;26.50;53.40
37782;DHT22;23621;50.878;4.584;2023-05-20T13:11:41;26.50;53.50
37782;DHT22;23621;50.878;4.584;2023-05-20T13:14:28;26.60;53.30
37782;DHT22;23621;50.878;4.584;2023-05-20T13:17:16;26.60;53.40
37782;DHT22;23621;50.878;4.584;2023-05-20T13:20:03;26.70;53.50
37782;DHT22;23621;50.878;4.584;2023-05-20T13:22:50;26.80;53.30
37782;DHT22;23621;50.878;4.584;2023-05-20T13:25:38;26.80;53.10
37782;DHT22;23621;50.878;4.584;2023-05-20T13:28:25;26.80;52.50
37782;DHT22;23621;50.878;4.584;2023-05-20T13:31:13;26.90;53.00
37782;DHT22;23621;50.878;4.584;2023-05-20T13:34:00;26.90;52.80
37782;DHT22;23621;50.878;4.584;2023-05-20T13:36:48;26.80;52.70
37782;DHT22;23621;50.878;4.584;2023-05-20T13:39:35;26.80;52.70
37782;DHT22;23621;50.878;4.584;2023-05-20T13:42:22;26.70;52.70
37782;DHT22;23621;50.878;4.584;2023-05-20T13:45:10;26.70;53.00
37782;DHT22;23621;50.878;4.584;2023-05-20T13:47:57;26.80;53.10
37782;DHT22;23621;50.878;4.584;2023-05-20T13:50:45;26.80;53.10
37782;DHT22;23621;50.878;4.584;2023-05-20T13:53:32;26.90;52.80
37782;DHT22;23621;50.878;4.584;2023-05-20T13:56:20;26.90;52.70
37782;DHT22;23621;50.878;4.584;2023-05-20T13:59:07;26.90;52.60
37782;DHT22;23621;50.878;4.584;2023-05-20T14:01:54;26.90;52.70
37782;DHT22;23621;50.878;4.584;2023-05-20T14:04:41;26.90;52.70
37782;DHT22;23621;50.878;4.584;2023-05-20T14:07:30;26.80;52.90
37782;DHT22;23621;50.878;4.584;2023-05-20T14:10:18;26.80;53.00
37782;DHT22;23621;50.878;4.584;2023-05-20T14:13:05;26.80;53.00
37782;DHT22;23621;50.878;4.584;2023-05-20T14:15:54;26.90;53.50
37782;DHT22;23621;50.878;4.584;2023-05-20T14:18:42;27.00;53.50
37782;DHT22;23621;50.878;4.584;2023-05-20T14:21:29;27.00;53.00
37782;DHT22;23621;50.878;4.584;2023-05-20T14:24:18;27.00;53.00
37782;DHT22;23621;50.878;4.584;2023-05-20T14:27:08;27.00;53.00
37782;DHT22;23621;50.878;4.584;2023-05-20T14:29:55;27.00;53.60
37782;DHT22;23621;50.878;4.584;2023-05-20T14:32:42;26.90;53.70
37782;DHT22;23621;50.878;4.584;2023-05-20T14:35:29;26.80;54.10
37782;DHT22;23621;50.878;4.584;2023-05-20T14:38:17;26.80;54.00
37782;DHT22;23621;50.878;4.584;2023-05-20T14:41:05;26.80;54.00
37782;DHT22;23621;50.878;4.584;2023-05-20T14:43:53;26.80;53.70
37782;DHT22;23621;50.878;4.584;2023-05-20T14:46:40;26.90;53.70
37782;DHT22;23621;50.878;4.584;2023-05-20T14:49:28;26.90;53.70
37782;DHT22;23621;50.878;4.584;2023-05-20T14:52:16;26.90;53.90
37782;DHT22;23621;50.878;4.584;2023-05-20T14:55:04;26.90;53.90
37782;DHT22;23621;50.878;4.584;2023-05-20T14:57:51;27.00;53.40
37782;DHT22;23621;50.878;4.584;2023-05-20T15:00:38;27.00;53.10
37782;DHT22;23621;50.878;4.584;2023-05-20T15:03:26;27.00;53.30
37782;DHT22;23621;50.878;4.584;2023-05-20T15:06:14;27.00;53.50
37782;DHT22;23621;50.878;4.584;2023-05-20T15:09:02;27.00;53.30
37782;DHT22;23621;50.878;4.584;2023-05-20T15:11:49;27.00;53.10
37782;DHT22;23621;50.878;4.584;2023-05-20T15:14:37;27.10;53.10
37782;DHT22;23621;50.878;4.584;2023-05-20T15:17:24;27.20;53.20
37782;DHT22;23621;50.878;4.584;2023-05-20T15:20:11;27.30;53.60
37782;DHT22;23621;50.878;4.584;2023-05-20T15:22:59;27.30;53.50
37782;DHT22;23621;50.878;4.584;2023-05-20T15:25:47;27.30;53.30
37782;DHT22;23621;50.878;4.584;2023-05-20T15:28:36;27.30;53.70
37782;DHT22;23621;50.878;4.584;2023-05-20T15:31:24;27.20;53.40
37782;DHT22;23621;50.878;4.584;2023-05-20T15:34:11;27.30;53.30
37782;DHT22;23621;50.878;4.584;2023-05-20T15:36:58;27.60;53.50
37782;DHT22;23621;50.878;4.584;2023-05-20T15:39:46;28.30;52.90
37782;DHT22;23621;50.878;4.584;2023-05-20T15:42:33;28.80;52.30
37782;DHT22;23621;50.878;4.584;2023-05-20T15:45:20;28.80;51.90
37782;DHT22;23621;50.878;4.584;2023-05-20T15:48:08;28.70;52.00
37782;DHT22;23621;50.878;4.584;2023-05-20T15:50:55;28.50;52.10
37782;DHT22;23621;50.878;4.584;2023-05-20T15:53:42;28.10;52.20
37782;DHT22;23621;50.878;4.584;2023-05-20T15:56:30;27.80;52.30
37782;DHT22;23621;50.878;4.584;2023-05-20T15:59:17;27.50;52.70
37782;DHT22;23621;50.878;4.584;2023-05-20T16:02:05;27.30;53.10
37782;DHT22;23621;50.878;4.584;2023-05-20T16:04:52;27.10;53.30
37782;DHT22;23621;50.878;4.584;2023-05-20T16:07:41;26.90;53.80
37782;DHT22;23621;50.878;4.584;2023-05-20T16:10:28;26.70;53.50
37782;DHT22;23621;50.878;4.584;2023-05-20T16:13:18;26.60;53.50
37782;DHT22;23621;50.878;4.584;2023-05-20T16:16:06;26.60;53.50
37782;DHT22;23621;50.878;4.584;2023-05-20T16:18:53;26.70;53.60
37782;DHT22;23621;50.878;4.584;2023-05-20T16:21:41;27.20;53.20
37782;DHT22;23621;50.878;4.584;2023-05-20T16:24:28;28.10;52.90
37782;DHT22;23621;50.878;4.584;2023-05-20T16:27:15;29.80;52.00
37782;DHT22;23621;50.878;4.584;2023-05-20T16:30:06;31.40;50.00
37782;DHT22;23621;50.878;4.584;2023-05-20T16:32:53;31.70;48.50
37782;DHT22;23621;50.878;4.584;2023-05-20T16:35:40;31.30;48.40
37782;DHT22;23621;50.878;4.584;2023-05-20T16:38:28;30.60;48.80
37782;DHT22;23621;50.878;4.584;2023-05-20T16:41:15;29.90;49.50
37782;DHT22;23621;50.878;4.584;2023-05-20T16:44:02;29.40;50.80
37782;DHT22;23621;50.878;4.584;2023-05-20T16:46:50;28.90;50.60
37782;DHT22;23621;50.878;4.584;2023-05-20T16:49:40;28.70;51.10
37782;DHT22;23621;50.878;4.584;2023-05-20T16:52:27;28.70;51.10
37782;DHT22;23621;50.878;4.584;2023-05-20T16:55:14;28.70;51.10
37782;DHT22;23621;50.878;4.584;2023-05-20T16:58:02;29.30;50.60
37782;DHT22;23621;50.878;4.584;2023-05-20T17:00:49;29.50;50.00
37782;DHT22;23621;50.878;4.584;2023-05-20T17:03:36;29.70;50.20
37782;DHT22;23621;50.878;4.584;2023-05-20T17:06:23;30.60;49.50
37782;DHT22;23621;50.878;4.584;2023-05-20T17:09:11;31.80;48.00
37782;DHT22;23621;50.878;4.584;2023-05-20T17:11:58;32.90;46.90
37782;DHT22;23621;50.878;4.584;2023-05-20T17:14:45;33.70;45.50
37782;DHT22;23621;50.878;4.584;2023-05-20T17:17:33;34.30;44.70
37782;DHT22;23621;50.878;4.584;2023-05-20T17:20:20;34.30;44.00
37782;DHT22;23621;50.878;4.584;2023-05-20T17:23:07;33.60;44.40
37782;DHT22;23621;50.878;4.584;2023-05-20T17:25:55;32.50;45.20
37782;DHT22;23621;50.878;4.584;2023-05-20T17:28:42;31.50;46.10
37782;DHT22;23621;50.878;4.584;2023-05-20T17:31:29;30.70;47.20
37782;DHT22;23621;50.878;4.584;2023-05-20T17:34:16;29.90;48.20
37782;DHT22;23621;50.878;4.584;2023-05-20T17:37:04;29.40;48.90
37782;DHT22;23621;50.878;4.584;2023-05-20T17:39:51;29.30;49.40
37782;DHT22;23621;50.878;4.584;2023-05-20T17:42:39;29.90;48.80
37782;DHT22;23621;50.878;4.584;2023-05-20T17:45:26;30.50;48.10
37782;DHT22;23621;50.878;4.584;2023-05-20T17:48:13;30.50;47.80
37782;DHT22;23621;50.878;4.584;2023-05-20T17:51:01;30.40;48.00
37782;DHT22;23621;50.878;4.584;2023-05-20T17:53:48;30.50;47.80
37782;DHT22;23621;50.878;4.584;2023-05-20T17:56:36;30.80;47.00